EWG6962 EDDH-LECH
Flight info
| Callsign | EWG6962 |
|---|---|
| Flight time | 2h 26m |
| Altitude | 36000 |
| Route | IDEKO7G/33 IDEKO DCT MISRI DCT LNO/N0439F350 DCT ARSIL/N0438F370 DCT GUERE DCT ABLIS DCT CRETA DCT RIMES |
| Aircraft | A320/M-SDE3FGHIRWY/LB1 |
Departure
| Time | 2026-04-24 13:52 |
|---|---|
| Airport | Hamburg Helmut Schmidt Airport (EDDH) |
Arrival
| Time | 2026-04-24 16:19 |
|---|---|
| Airport | Castellón-Costa Azahar Airport (LECH) |
| Time | Latitude | Longitude | Altitude | Speed | Heading |
|---|---|---|---|---|---|
| 2026-04-24 12:55 | 53.63168 | 10.00368 | 49 ft | 0 kts | 86° |
| 2026-04-24 13:44 | 53.63167 | 10.00352 | 48 ft | 2 kts | 87° |
| 2026-04-24 13:44 | 53.63166 | 10.00324 | 48 ft | 2 kts | 87° |
| 2026-04-24 13:44 | 53.63166 | 10.00296 | 48 ft | 2 kts | 88° |
| 2026-04-24 13:45 | 53.63165 | 10.00268 | 48 ft | 2 kts | 89° |
| 2026-04-24 13:45 | 53.63165 | 10.00241 | 48 ft | 2 kts | 92° |
| 2026-04-24 13:45 | 53.63166 | 10.00213 | 48 ft | 2 kts | 102° |
| 2026-04-24 13:45 | 53.63172 | 10.00187 | 42 ft | 2 kts | 160° |
| 2026-04-24 13:46 | 53.63181 | 10.00183 | 44 ft | 1 kts | 176° |
| 2026-04-24 13:48 | 53.63168 | 10.00184 | 48 ft | 3 kts | 176° |
| 2026-04-24 13:49 | 53.63158 | 10.00186 | 48 ft | 2 kts | 176° |
| 2026-04-24 13:49 | 53.63134 | 10.00188 | 48 ft | 3 kts | 176° |
| 2026-04-24 13:49 | 53.63117 | 10.00191 | 48 ft | 2 kts | 176° |
| 2026-04-24 13:49 | 53.63081 | 10.00190 | 48 ft | 6 kts | 191° |
| 2026-04-24 13:50 | 53.63028 | 10.00140 | 48 ft | 12 kts | 212° |
| 2026-04-24 13:50 | 53.62962 | 10.00068 | 48 ft | 7 kts | 213° |
| 2026-04-24 13:50 | 53.62928 | 10.00017 | 48 ft | 6 kts | 235° |
| 2026-04-24 13:50 | 53.62906 | 9.99945 | 45 ft | 8 kts | 243° |
| 2026-04-24 13:51 | 53.62874 | 9.99837 | 44 ft | 9 kts | 243° |
| 2026-04-24 13:51 | 53.62864 | 9.99750 | 45 ft | 6 kts | 297° |
| 2026-04-24 13:51 | 53.62916 | 9.99703 | 45 ft | 17 kts | 334° |
| 2026-04-24 13:51 | 53.63227 | 9.99434 | 47 ft | 84 kts | 333° |
| 2026-04-24 13:52 | 53.63918 | 9.98834 | 50 ft | 137 kts | 333° |
| 2026-04-24 13:52 | 53.64882 | 9.98009 | 300 ft | 159 kts | 329° |
| 2026-04-24 13:52 | 53.65864 | 9.97202 | 1094 ft | 156 kts | 329° |
| 2026-04-24 13:52 | 53.66832 | 9.96383 | 1798 ft | 155 kts | 328° |
| 2026-04-24 13:53 | 53.67789 | 9.95556 | 2451 ft | 155 kts | 329° |
| 2026-04-24 13:53 | 53.68741 | 9.94735 | 3063 ft | 155 kts | 331° |
| 2026-04-24 13:53 | 53.69739 | 9.93873 | 3471 ft | 170 kts | 332° |
| 2026-04-24 13:53 | 53.70851 | 9.92870 | 3684 ft | 192 kts | 326° |
| 2026-04-24 13:54 | 53.71616 | 9.90935 | 4062 ft | 214 kts | 283° |
| 2026-04-24 13:54 | 53.71529 | 9.88262 | 4410 ft | 244 kts | 261° |
| 2026-04-24 13:54 | 53.71020 | 9.85382 | 4917 ft | 263 kts | 254° |
| 2026-04-24 13:54 | 53.70363 | 9.82448 | 5667 ft | 270 kts | 253° |
| 2026-04-24 13:55 | 53.69675 | 9.79465 | 6467 ft | 275 kts | 254° |
| 2026-04-24 13:55 | 53.68999 | 9.76452 | 7217 ft | 279 kts | 255° |
| 2026-04-24 13:55 | 53.68332 | 9.73354 | 8015 ft | 282 kts | 256° |
| 2026-04-24 13:55 | 53.67685 | 9.70221 | 8822 ft | 284 kts | 256° |
| 2026-04-24 13:56 | 53.67045 | 9.67043 | 9627 ft | 287 kts | 257° |
| 2026-04-24 13:56 | 53.66379 | 9.63845 | 10395 ft | 292 kts | 251° |
| 2026-04-24 13:56 | 53.65281 | 9.60890 | 11058 ft | 305 kts | 234° |
| 2026-04-24 13:56 | 53.63592 | 9.58471 | 11289 ft | 336 kts | 213° |
| 2026-04-24 13:57 | 53.61342 | 9.57138 | 11647 ft | 357 kts | 191° |
| 2026-04-24 13:57 | 53.58839 | 9.56662 | 12223 ft | 365 kts | 188° |
| 2026-04-24 13:57 | 53.56303 | 9.56190 | 12920 ft | 368 kts | 188° |
| 2026-04-24 13:57 | 53.53902 | 9.55722 | 13581 ft | 370 kts | 188° |
| 2026-04-24 13:58 | 53.51335 | 9.55210 | 14224 ft | 373 kts | 188° |
| 2026-04-24 13:58 | 53.48679 | 9.54680 | 14864 ft | 376 kts | 189° |
| 2026-04-24 13:58 | 53.46273 | 9.54200 | 15447 ft | 378 kts | 189° |
| 2026-04-24 13:58 | 53.43653 | 9.53678 | 16074 ft | 380 kts | 189° |
| 2026-04-24 13:59 | 53.41018 | 9.53153 | 16702 ft | 382 kts | 189° |
| 2026-04-24 13:59 | 53.38369 | 9.52630 | 17324 ft | 384 kts | 189° |
| 2026-04-24 13:59 | 53.35702 | 9.52109 | 17942 ft | 386 kts | 189° |
| 2026-04-24 13:59 | 53.33017 | 9.51587 | 18540 ft | 389 kts | 189° |
| 2026-04-24 14:00 | 53.30357 | 9.51068 | 19047 ft | 391 kts | 189° |
| 2026-04-24 14:00 | 53.27645 | 9.50537 | 19566 ft | 393 kts | 189° |
| 2026-04-24 14:00 | 53.24924 | 9.50003 | 20081 ft | 395 kts | 190° |
| 2026-04-24 14:00 | 53.22179 | 9.49464 | 20585 ft | 397 kts | 190° |
| 2026-04-24 14:01 | 53.19428 | 9.48928 | 21079 ft | 399 kts | 190° |
| 2026-04-24 14:01 | 53.16661 | 9.48386 | 21553 ft | 401 kts | 190° |
| 2026-04-24 14:01 | 53.13881 | 9.47842 | 22040 ft | 403 kts | 190° |
| 2026-04-24 14:01 | 53.11083 | 9.47300 | 22519 ft | 406 kts | 190° |
| 2026-04-24 14:02 | 53.08265 | 9.46761 | 22982 ft | 408 kts | 190° |
| 2026-04-24 14:02 | 53.05472 | 9.46227 | 23443 ft | 410 kts | 191° |
| 2026-04-24 14:02 | 53.02685 | 9.45307 | 23860 ft | 407 kts | 201° |
| 2026-04-24 14:02 | 53.00067 | 9.43541 | 24233 ft | 404 kts | 212° |
| 2026-04-24 14:03 | 52.97711 | 9.41019 | 24602 ft | 401 kts | 222° |
| 2026-04-24 14:03 | 52.95694 | 9.37854 | 24970 ft | 398 kts | 232° |
| 2026-04-24 14:03 | 52.93899 | 9.34350 | 25344 ft | 399 kts | 233° |
| 2026-04-24 14:03 | 52.92091 | 9.30836 | 25719 ft | 401 kts | 232° |
| 2026-04-24 14:04 | 52.90277 | 9.27321 | 26086 ft | 402 kts | 232° |
| 2026-04-24 14:04 | 52.88453 | 9.23792 | 26450 ft | 404 kts | 232° |
| 2026-04-24 14:04 | 52.86617 | 9.20246 | 26813 ft | 405 kts | 232° |
| 2026-04-24 14:04 | 52.84776 | 9.16696 | 27164 ft | 407 kts | 232° |
| 2026-04-24 14:05 | 52.82928 | 9.13136 | 27525 ft | 408 kts | 232° |
| 2026-04-24 14:05 | 52.81096 | 9.09616 | 27873 ft | 410 kts | 232° |
| 2026-04-24 14:05 | 52.79228 | 9.06033 | 28221 ft | 411 kts | 232° |
| 2026-04-24 14:05 | 52.77351 | 9.02438 | 28576 ft | 413 kts | 232° |
| 2026-04-24 14:06 | 52.75474 | 8.98841 | 28911 ft | 414 kts | 232° |
| 2026-04-24 14:06 | 52.73581 | 8.95218 | 29251 ft | 416 kts | 232° |
| 2026-04-24 14:06 | 52.71701 | 8.91624 | 29568 ft | 417 kts | 232° |
| 2026-04-24 14:06 | 52.69796 | 8.87985 | 29877 ft | 419 kts | 232° |
| 2026-04-24 14:07 | 52.67882 | 8.84334 | 30187 ft | 420 kts | 231° |
| 2026-04-24 14:07 | 52.65964 | 8.80683 | 30450 ft | 422 kts | 231° |
| 2026-04-24 14:07 | 52.64036 | 8.77015 | 30715 ft | 423 kts | 231° |
| 2026-04-24 14:07 | 52.62128 | 8.73392 | 30988 ft | 423 kts | 231° |
| 2026-04-24 14:08 | 52.60194 | 8.69735 | 31343 ft | 422 kts | 231° |
| 2026-04-24 14:08 | 52.58272 | 8.66114 | 31737 ft | 419 kts | 231° |
| 2026-04-24 14:08 | 52.56356 | 8.62507 | 32141 ft | 416 kts | 231° |
| 2026-04-24 14:08 | 52.54454 | 8.58928 | 32528 ft | 414 kts | 231° |
| 2026-04-24 14:09 | 52.52561 | 8.55366 | 32913 ft | 412 kts | 231° |
| 2026-04-24 14:09 | 52.50683 | 8.51833 | 33301 ft | 409 kts | 231° |
| 2026-04-24 14:09 | 52.48838 | 8.48367 | 33691 ft | 407 kts | 231° |
| 2026-04-24 14:09 | 52.46976 | 8.44877 | 34083 ft | 405 kts | 231° |
| 2026-04-24 14:10 | 52.45125 | 8.41409 | 34415 ft | 402 kts | 231° |
| 2026-04-24 14:10 | 52.43277 | 8.37952 | 34723 ft | 401 kts | 231° |
| 2026-04-24 14:10 | 52.41433 | 8.34509 | 34995 ft | 400 kts | 231° |
| 2026-04-24 14:10 | 52.39618 | 8.31123 | 35161 ft | 400 kts | 231° |
| 2026-04-24 14:11 | 52.35968 | 8.24329 | 35213 ft | 394 kts | 231° |
| 2026-04-24 14:12 | 52.30523 | 8.14228 | 35213 ft | 393 kts | 231° |
| 2026-04-24 14:12 | 52.26895 | 8.07530 | 35215 ft | 393 kts | 231° |
| 2026-04-24 14:13 | 52.23283 | 8.00873 | 35215 ft | 393 kts | 231° |
| 2026-04-24 14:13 | 52.19652 | 7.94195 | 35218 ft | 393 kts | 231° |
| 2026-04-24 14:14 | 52.16045 | 7.87577 | 35213 ft | 392 kts | 231° |
| 2026-04-24 14:14 | 52.10607 | 7.77631 | 35211 ft | 392 kts | 230° |
| 2026-04-24 14:15 | 52.06963 | 7.70992 | 35206 ft | 392 kts | 230° |
| 2026-04-24 14:15 | 52.03330 | 7.64397 | 35203 ft | 392 kts | 230° |
| 2026-04-24 14:16 | 51.99692 | 7.57811 | 35204 ft | 392 kts | 230° |
| 2026-04-24 14:17 | 51.94198 | 7.48034 | 35206 ft | 393 kts | 225° |
| 2026-04-24 14:17 | 51.87904 | 7.39435 | 35204 ft | 394 kts | 222° |
| 2026-04-24 14:18 | 51.83693 | 7.33743 | 35210 ft | 394 kts | 222° |
| 2026-04-24 14:18 | 51.79477 | 7.28053 | 35213 ft | 395 kts | 222° |
| 2026-04-24 14:19 | 51.75284 | 7.22421 | 35211 ft | 395 kts | 222° |
| 2026-04-24 14:19 | 51.71050 | 7.16736 | 35212 ft | 395 kts | 222° |
| 2026-04-24 14:20 | 51.66830 | 7.11089 | 35218 ft | 395 kts | 222° |
| 2026-04-24 14:20 | 51.62579 | 7.05441 | 35218 ft | 395 kts | 222° |
| 2026-04-24 14:21 | 51.58360 | 6.99836 | 35222 ft | 395 kts | 222° |
| 2026-04-24 14:21 | 51.54241 | 6.94371 | 35223 ft | 395 kts | 221° |
| 2026-04-24 14:22 | 51.49994 | 6.88744 | 35222 ft | 396 kts | 221° |
| 2026-04-24 14:23 | 51.43639 | 6.80364 | 35225 ft | 396 kts | 221° |
| 2026-04-24 14:23 | 51.39380 | 6.74749 | 35225 ft | 396 kts | 221° |
| 2026-04-24 14:24 | 51.35128 | 6.69165 | 35223 ft | 396 kts | 221° |
| 2026-04-24 14:24 | 51.30846 | 6.63570 | 35226 ft | 396 kts | 221° |
| 2026-04-24 14:25 | 51.27287 | 6.58928 | 35224 ft | 397 kts | 221° |
| 2026-04-24 14:25 | 51.22313 | 6.52447 | 35224 ft | 397 kts | 221° |
| 2026-04-24 14:26 | 51.18023 | 6.46876 | 35233 ft | 397 kts | 221° |
| 2026-04-24 14:26 | 51.13758 | 6.41346 | 35231 ft | 397 kts | 221° |
| 2026-04-24 14:27 | 51.09464 | 6.35785 | 35224 ft | 397 kts | 221° |
| 2026-04-24 14:27 | 51.05162 | 6.30232 | 35228 ft | 398 kts | 220° |
| 2026-04-24 14:28 | 51.00854 | 6.24689 | 35230 ft | 398 kts | 220° |
| 2026-04-24 14:28 | 50.96574 | 6.19196 | 35228 ft | 398 kts | 220° |
| 2026-04-24 14:29 | 50.92254 | 6.13669 | 35230 ft | 398 kts | 220° |
| 2026-04-24 14:29 | 50.87931 | 6.08147 | 35228 ft | 399 kts | 220° |
| 2026-04-24 14:30 | 50.84331 | 6.03566 | 35227 ft | 399 kts | 220° |
| 2026-04-24 14:30 | 50.79296 | 5.97171 | 35228 ft | 399 kts | 220° |
| 2026-04-24 14:31 | 50.74952 | 5.91666 | 35225 ft | 399 kts | 220° |
| 2026-04-24 14:31 | 50.71336 | 5.87086 | 35228 ft | 400 kts | 220° |
| 2026-04-24 14:32 | 50.67006 | 5.81615 | 35239 ft | 400 kts | 220° |
| 2026-04-24 14:32 | 50.62653 | 5.76131 | 35243 ft | 400 kts | 220° |
| 2026-04-24 14:33 | 50.58233 | 5.70779 | 35246 ft | 401 kts | 213° |
| 2026-04-24 14:33 | 50.53323 | 5.66555 | 35247 ft | 402 kts | 210° |
| 2026-04-24 14:34 | 50.48420 | 5.62384 | 35242 ft | 403 kts | 210° |
| 2026-04-24 14:34 | 50.43486 | 5.58186 | 35243 ft | 403 kts | 210° |
| 2026-04-24 14:35 | 50.38543 | 5.54002 | 35237 ft | 403 kts | 210° |
| 2026-04-24 14:35 | 50.33620 | 5.49860 | 35234 ft | 404 kts | 210° |
| 2026-04-24 14:36 | 50.28685 | 5.45701 | 35225 ft | 404 kts | 210° |
| 2026-04-24 14:36 | 50.23731 | 5.41528 | 35222 ft | 404 kts | 210° |
| 2026-04-24 14:37 | 50.18768 | 5.37368 | 35219 ft | 405 kts | 210° |
| 2026-04-24 14:37 | 50.13797 | 5.33210 | 35217 ft | 405 kts | 209° |
| 2026-04-24 14:38 | 50.08823 | 5.29061 | 35210 ft | 405 kts | 209° |
| 2026-04-24 14:38 | 50.03847 | 5.24927 | 35213 ft | 405 kts | 209° |
| 2026-04-24 14:39 | 49.98897 | 5.20820 | 35208 ft | 406 kts | 209° |
| 2026-04-24 14:39 | 49.93915 | 5.16686 | 35212 ft | 406 kts | 209° |
| 2026-04-24 14:40 | 49.88917 | 5.12559 | 35204 ft | 406 kts | 209° |
| 2026-04-24 14:40 | 49.83920 | 5.08438 | 35201 ft | 406 kts | 209° |
| 2026-04-24 14:41 | 49.78927 | 5.04329 | 35198 ft | 406 kts | 208° |
| 2026-04-24 14:41 | 49.73960 | 5.00252 | 35201 ft | 407 kts | 208° |
| 2026-04-24 14:42 | 49.68949 | 4.96143 | 35202 ft | 407 kts | 208° |
| 2026-04-24 14:42 | 49.63932 | 4.92053 | 35195 ft | 407 kts | 208° |
| 2026-04-24 14:43 | 49.58937 | 4.87984 | 35192 ft | 408 kts | 208° |
| 2026-04-24 14:43 | 49.53911 | 4.83901 | 35186 ft | 408 kts | 208° |
| 2026-04-24 14:44 | 49.48886 | 4.79831 | 35188 ft | 408 kts | 208° |
| 2026-04-24 14:44 | 49.43857 | 4.75761 | 35189 ft | 408 kts | 208° |
| 2026-04-24 14:45 | 49.38825 | 4.71694 | 35191 ft | 409 kts | 208° |
| 2026-04-24 14:45 | 49.33818 | 4.67661 | 35191 ft | 409 kts | 207° |
| 2026-04-24 14:46 | 49.28771 | 4.63600 | 35186 ft | 409 kts | 207° |
| 2026-04-24 14:46 | 49.23751 | 4.59572 | 35184 ft | 409 kts | 207° |
| 2026-04-24 14:47 | 49.18694 | 4.55544 | 35187 ft | 409 kts | 207° |
| 2026-04-24 14:47 | 49.13622 | 4.51507 | 35179 ft | 410 kts | 207° |
| 2026-04-24 14:48 | 49.08571 | 4.47472 | 35179 ft | 410 kts | 207° |
| 2026-04-24 14:48 | 49.03511 | 4.43442 | 35179 ft | 410 kts | 207° |
| 2026-04-24 14:49 | 48.98480 | 4.39461 | 35185 ft | 410 kts | 207° |
| 2026-04-24 14:49 | 48.93408 | 4.35446 | 35184 ft | 410 kts | 206° |
| 2026-04-24 14:50 | 48.88328 | 4.31441 | 35182 ft | 411 kts | 206° |
| 2026-04-24 14:50 | 48.83254 | 4.27447 | 35181 ft | 411 kts | 206° |
| 2026-04-24 14:51 | 48.78200 | 4.23475 | 35176 ft | 411 kts | 206° |
| 2026-04-24 14:51 | 48.73113 | 4.19499 | 35182 ft | 411 kts | 206° |
| 2026-04-24 14:52 | 48.68026 | 4.15526 | 35177 ft | 411 kts | 206° |
| 2026-04-24 14:52 | 48.62927 | 4.11549 | 35181 ft | 412 kts | 206° |
| 2026-04-24 14:53 | 48.57854 | 4.07609 | 35182 ft | 412 kts | 206° |
| 2026-04-24 14:53 | 48.52785 | 4.03544 | 35182 ft | 414 kts | 208° |
| 2026-04-24 14:53 | 48.50283 | 4.01358 | 35302 ft | 417 kts | 209° |
| 2026-04-24 14:54 | 48.47778 | 3.99107 | 35479 ft | 419 kts | 209° |
| 2026-04-24 14:54 | 48.45274 | 3.96844 | 35694 ft | 419 kts | 209° |
| 2026-04-24 14:54 | 48.42795 | 3.94624 | 35914 ft | 419 kts | 208° |
| 2026-04-24 14:54 | 48.40274 | 3.92395 | 36117 ft | 420 kts | 208° |
| 2026-04-24 14:55 | 48.38597 | 3.90929 | 36271 ft | 420 kts | 208° |
| 2026-04-24 14:55 | 48.35206 | 3.87989 | 36545 ft | 420 kts | 208° |
| 2026-04-24 14:55 | 48.32670 | 3.85802 | 36743 ft | 420 kts | 208° |
| 2026-04-24 14:55 | 48.30123 | 3.83611 | 36940 ft | 420 kts | 208° |
| 2026-04-24 14:56 | 48.27617 | 3.81454 | 37133 ft | 421 kts | 208° |
| 2026-04-24 14:56 | 48.22530 | 3.77061 | 37184 ft | 421 kts | 208° |
| 2026-04-24 14:57 | 48.17449 | 3.72663 | 37183 ft | 422 kts | 208° |
| 2026-04-24 14:57 | 48.12347 | 3.68262 | 37181 ft | 423 kts | 208° |
| 2026-04-24 14:58 | 48.07263 | 3.63896 | 37167 ft | 423 kts | 208° |
| 2026-04-24 14:58 | 48.02145 | 3.59504 | 37171 ft | 424 kts | 208° |
| 2026-04-24 14:59 | 47.97017 | 3.55130 | 37164 ft | 424 kts | 207° |
| 2026-04-24 14:59 | 47.91889 | 3.50759 | 37159 ft | 425 kts | 208° |
| 2026-04-24 15:00 | 47.86791 | 3.46417 | 37154 ft | 425 kts | 207° |
| 2026-04-24 15:00 | 47.81648 | 3.42058 | 37148 ft | 426 kts | 207° |
| 2026-04-24 15:01 | 47.76486 | 3.37677 | 37145 ft | 427 kts | 207° |
| 2026-04-24 15:01 | 47.71306 | 3.33304 | 37143 ft | 427 kts | 207° |
| 2026-04-24 15:02 | 47.66160 | 3.28968 | 37143 ft | 428 kts | 207° |
| 2026-04-24 15:02 | 47.60964 | 3.24592 | 37141 ft | 429 kts | 207° |
| 2026-04-24 15:03 | 47.56642 | 3.20968 | 37139 ft | 429 kts | 207° |
| 2026-04-24 15:03 | 47.50588 | 3.15896 | 37136 ft | 430 kts | 208° |
| 2026-04-24 15:04 | 47.45369 | 3.11535 | 37136 ft | 430 kts | 208° |
| 2026-04-24 15:04 | 47.40145 | 3.07194 | 37128 ft | 430 kts | 208° |
| 2026-04-24 15:05 | 47.34944 | 3.02871 | 37131 ft | 431 kts | 208° |
| 2026-04-24 15:05 | 47.29714 | 2.98521 | 37131 ft | 431 kts | 208° |
| 2026-04-24 15:06 | 47.24480 | 2.94185 | 37133 ft | 431 kts | 208° |
| 2026-04-24 15:06 | 47.19283 | 2.89898 | 37136 ft | 430 kts | 208° |
| 2026-04-24 15:07 | 47.14050 | 2.85586 | 37134 ft | 430 kts | 209° |
| 2026-04-24 15:07 | 47.08820 | 2.81285 | 37135 ft | 430 kts | 209° |
| 2026-04-24 15:08 | 47.03588 | 2.76997 | 37121 ft | 430 kts | 209° |
| 2026-04-24 15:08 | 46.98373 | 2.72734 | 37118 ft | 430 kts | 210° |
| 2026-04-24 15:09 | 46.93162 | 2.68478 | 37114 ft | 430 kts | 210° |
| 2026-04-24 15:09 | 46.87923 | 2.64207 | 37115 ft | 431 kts | 210° |
| 2026-04-24 15:10 | 46.82671 | 2.59934 | 37111 ft | 431 kts | 210° |
| 2026-04-24 15:10 | 46.77450 | 2.55705 | 37106 ft | 431 kts | 210° |
| 2026-04-24 15:11 | 46.72188 | 2.51454 | 37112 ft | 431 kts | 210° |
| 2026-04-24 15:11 | 46.66931 | 2.47208 | 37107 ft | 431 kts | 211° |
| 2026-04-24 15:12 | 46.61708 | 2.42997 | 37107 ft | 431 kts | 211° |
| 2026-04-24 15:12 | 46.53832 | 2.36670 | 37111 ft | 431 kts | 211° |
| 2026-04-24 15:13 | 46.48608 | 2.32485 | 37111 ft | 430 kts | 211° |
| 2026-04-24 15:13 | 46.43359 | 2.28286 | 37115 ft | 430 kts | 211° |
| 2026-04-24 15:14 | 46.38116 | 2.24099 | 37115 ft | 430 kts | 211° |
| 2026-04-24 15:14 | 46.32861 | 2.19921 | 37112 ft | 430 kts | 211° |
| 2026-04-24 15:15 | 46.27612 | 2.15757 | 37107 ft | 430 kts | 211° |
| 2026-04-24 15:15 | 46.22397 | 2.11624 | 37101 ft | 430 kts | 211° |
| 2026-04-24 15:16 | 46.16868 | 2.08319 | 37095 ft | 434 kts | 195° |
| 2026-04-24 15:16 | 46.10919 | 2.06577 | 37096 ft | 435 kts | 194° |
| 2026-04-24 15:17 | 46.05034 | 2.04826 | 37097 ft | 434 kts | 194° |
| 2026-04-24 15:17 | 45.99111 | 2.03052 | 37098 ft | 434 kts | 194° |
| 2026-04-24 15:18 | 45.93184 | 2.01299 | 37100 ft | 434 kts | 194° |
| 2026-04-24 15:18 | 45.87300 | 1.99573 | 37102 ft | 433 kts | 194° |
| 2026-04-24 15:19 | 45.81391 | 1.97843 | 37112 ft | 433 kts | 194° |
| 2026-04-24 15:19 | 45.75491 | 1.96119 | 37109 ft | 432 kts | 194° |
| 2026-04-24 15:20 | 45.70579 | 1.94686 | 37111 ft | 432 kts | 194° |
| 2026-04-24 15:20 | 45.64688 | 1.92969 | 37107 ft | 432 kts | 194° |
| 2026-04-24 15:21 | 45.58774 | 1.91246 | 37110 ft | 432 kts | 194° |
| 2026-04-24 15:21 | 45.52915 | 1.89544 | 37109 ft | 432 kts | 194° |
| 2026-04-24 15:22 | 45.47013 | 1.87832 | 37108 ft | 432 kts | 193° |
| 2026-04-24 15:23 | 45.38171 | 1.85276 | 37101 ft | 432 kts | 193° |
| 2026-04-24 15:23 | 45.29371 | 1.82747 | 37098 ft | 432 kts | 193° |
| 2026-04-24 15:25 | 45.14644 | 1.78518 | 37085 ft | 431 kts | 193° |
| 2026-04-24 15:26 | 44.99947 | 1.74340 | 37085 ft | 431 kts | 193° |
| 2026-04-24 15:27 | 44.82299 | 1.69330 | 37083 ft | 431 kts | 193° |
| 2026-04-24 15:29 | 44.64674 | 1.64361 | 37087 ft | 431 kts | 193° |
| 2026-04-24 15:31 | 44.44102 | 1.58593 | 37091 ft | 431 kts | 192° |
| 2026-04-24 15:33 | 44.20609 | 1.52080 | 37095 ft | 430 kts | 192° |
| 2026-04-24 15:34 | 44.05989 | 1.47925 | 37088 ft | 428 kts | 198° |
| 2026-04-24 15:35 | 43.91866 | 1.41331 | 37090 ft | 428 kts | 199° |
| 2026-04-24 15:36 | 43.86256 | 1.38707 | 37091 ft | 427 kts | 199° |
| 2026-04-24 15:36 | 43.77804 | 1.34770 | 37092 ft | 426 kts | 199° |
| 2026-04-24 15:37 | 43.72178 | 1.32150 | 37095 ft | 426 kts | 199° |
| 2026-04-24 15:37 | 43.66556 | 1.29547 | 37095 ft | 425 kts | 199° |
| 2026-04-24 15:38 | 43.60941 | 1.26951 | 37097 ft | 425 kts | 199° |
| 2026-04-24 15:38 | 43.55358 | 1.24377 | 37097 ft | 425 kts | 199° |
| 2026-04-24 15:39 | 43.49752 | 1.21790 | 37097 ft | 424 kts | 199° |
| 2026-04-24 15:39 | 43.44149 | 1.19210 | 37095 ft | 424 kts | 199° |
| 2026-04-24 15:40 | 43.38584 | 1.16656 | 37091 ft | 424 kts | 199° |
| 2026-04-24 15:40 | 43.32976 | 1.14086 | 37088 ft | 424 kts | 199° |
| 2026-04-24 15:41 | 43.27373 | 1.11522 | 37085 ft | 424 kts | 199° |
| 2026-04-24 15:41 | 43.21765 | 1.08973 | 37090 ft | 424 kts | 199° |
| 2026-04-24 15:42 | 43.16200 | 1.06447 | 37088 ft | 423 kts | 199° |
| 2026-04-24 15:42 | 43.10608 | 1.03900 | 37093 ft | 424 kts | 199° |
| 2026-04-24 15:43 | 43.05005 | 1.01353 | 37097 ft | 424 kts | 199° |
| 2026-04-24 15:43 | 42.99402 | 0.98817 | 37099 ft | 424 kts | 199° |
| 2026-04-24 15:44 | 42.93568 | 0.96176 | 37107 ft | 424 kts | 199° |
| 2026-04-24 15:44 | 42.87964 | 0.93649 | 37109 ft | 424 kts | 198° |
| 2026-04-24 15:45 | 42.82373 | 0.91125 | 37119 ft | 424 kts | 198° |
| 2026-04-24 15:45 | 42.76792 | 0.88618 | 37130 ft | 424 kts | 198° |
| 2026-04-24 15:46 | 42.71182 | 0.86106 | 37125 ft | 424 kts | 198° |
| 2026-04-24 15:46 | 42.65575 | 0.83595 | 37128 ft | 424 kts | 198° |
| 2026-04-24 15:47 | 42.59991 | 0.81100 | 37119 ft | 424 kts | 198° |
| 2026-04-24 15:47 | 42.54371 | 0.78602 | 37114 ft | 424 kts | 198° |
| 2026-04-24 15:48 | 42.48752 | 0.76103 | 37107 ft | 425 kts | 198° |
| 2026-04-24 15:48 | 42.43126 | 0.73605 | 37101 ft | 425 kts | 198° |
| 2026-04-24 15:49 | 42.37528 | 0.71127 | 37096 ft | 425 kts | 198° |
| 2026-04-24 15:49 | 42.31905 | 0.68640 | 37100 ft | 425 kts | 198° |
| 2026-04-24 15:50 | 42.26271 | 0.66134 | 37091 ft | 426 kts | 198° |
| 2026-04-24 15:50 | 42.20635 | 0.63643 | 37090 ft | 426 kts | 198° |
| 2026-04-24 15:51 | 42.15004 | 0.61166 | 37087 ft | 426 kts | 198° |
| 2026-04-24 15:51 | 42.09396 | 0.58704 | 37088 ft | 426 kts | 198° |
| 2026-04-24 15:52 | 42.03755 | 0.56234 | 37086 ft | 426 kts | 198° |
| 2026-04-24 15:52 | 41.99063 | 0.54183 | 37084 ft | 425 kts | 198° |
| 2026-04-24 15:53 | 41.93420 | 0.51721 | 36929 ft | 426 kts | 198° |
| 2026-04-24 15:53 | 41.90604 | 0.50490 | 36663 ft | 425 kts | 198° |
| 2026-04-24 15:53 | 41.87791 | 0.49261 | 36361 ft | 424 kts | 198° |
| 2026-04-24 15:54 | 41.84993 | 0.48040 | 35841 ft | 421 kts | 198° |
| 2026-04-24 15:54 | 41.82249 | 0.46847 | 35351 ft | 418 kts | 198° |
| 2026-04-24 15:54 | 41.79489 | 0.45647 | 34851 ft | 416 kts | 198° |
| 2026-04-24 15:54 | 41.76731 | 0.44448 | 34347 ft | 413 kts | 198° |
| 2026-04-24 15:55 | 41.74005 | 0.43267 | 33811 ft | 412 kts | 198° |
| 2026-04-24 15:55 | 41.71282 | 0.42089 | 33316 ft | 408 kts | 198° |
| 2026-04-24 15:55 | 41.68589 | 0.40924 | 32825 ft | 405 kts | 198° |
| 2026-04-24 15:55 | 41.65916 | 0.39768 | 32344 ft | 402 kts | 198° |
| 2026-04-24 15:56 | 41.63263 | 0.38622 | 31858 ft | 398 kts | 198° |
| 2026-04-24 15:56 | 41.60666 | 0.37501 | 31400 ft | 396 kts | 198° |
| 2026-04-24 15:56 | 41.58046 | 0.36371 | 30934 ft | 393 kts | 198° |
| 2026-04-24 15:56 | 41.55456 | 0.35252 | 30480 ft | 390 kts | 198° |
| 2026-04-24 15:57 | 41.52883 | 0.34138 | 30019 ft | 387 kts | 199° |
| 2026-04-24 15:57 | 41.50328 | 0.33034 | 29556 ft | 383 kts | 198° |
| 2026-04-24 15:57 | 41.47808 | 0.31948 | 29127 ft | 378 kts | 198° |
| 2026-04-24 15:57 | 41.45348 | 0.30891 | 28714 ft | 373 kts | 198° |
| 2026-04-24 15:58 | 41.42887 | 0.29838 | 28302 ft | 368 kts | 198° |
| 2026-04-24 15:58 | 41.40462 | 0.28801 | 27895 ft | 364 kts | 198° |
| 2026-04-24 15:58 | 41.38064 | 0.27775 | 27487 ft | 360 kts | 198° |
| 2026-04-24 15:58 | 41.35693 | 0.26758 | 27093 ft | 356 kts | 198° |
| 2026-04-24 15:59 | 41.33336 | 0.25746 | 26683 ft | 353 kts | 198° |
| 2026-04-24 15:59 | 41.31005 | 0.24746 | 26276 ft | 350 kts | 198° |
| 2026-04-24 15:59 | 41.28685 | 0.23753 | 25860 ft | 348 kts | 198° |
| 2026-04-24 15:59 | 41.26415 | 0.22782 | 25451 ft | 346 kts | 198° |
| 2026-04-24 16:00 | 41.24128 | 0.21807 | 25032 ft | 345 kts | 198° |
| 2026-04-24 16:00 | 41.21845 | 0.20836 | 24612 ft | 343 kts | 198° |
| 2026-04-24 16:00 | 41.19568 | 0.19866 | 24162 ft | 342 kts | 198° |
| 2026-04-24 16:00 | 41.17307 | 0.18903 | 23739 ft | 341 kts | 198° |
| 2026-04-24 16:01 | 41.15040 | 0.17937 | 23251 ft | 340 kts | 198° |
| 2026-04-24 16:01 | 41.12786 | 0.16978 | 22815 ft | 339 kts | 198° |
| 2026-04-24 16:01 | 41.10547 | 0.16022 | 22390 ft | 337 kts | 198° |
| 2026-04-24 16:01 | 41.08343 | 0.15083 | 21978 ft | 336 kts | 197° |
| 2026-04-24 16:02 | 41.06122 | 0.14136 | 21563 ft | 334 kts | 197° |
| 2026-04-24 16:02 | 41.03911 | 0.13197 | 21151 ft | 333 kts | 197° |
| 2026-04-24 16:02 | 41.01713 | 0.12269 | 20745 ft | 331 kts | 197° |
| 2026-04-24 16:02 | 40.99518 | 0.11342 | 20335 ft | 329 kts | 197° |
| 2026-04-24 16:03 | 40.97338 | 0.10421 | 19916 ft | 327 kts | 196° |
| 2026-04-24 16:03 | 40.95177 | 0.09510 | 19533 ft | 326 kts | 196° |
| 2026-04-24 16:03 | 40.93018 | 0.08600 | 19131 ft | 326 kts | 196° |
| 2026-04-24 16:03 | 40.90850 | 0.07685 | 18735 ft | 326 kts | 196° |
| 2026-04-24 16:04 | 40.88712 | 0.06782 | 18332 ft | 326 kts | 196° |
| 2026-04-24 16:04 | 40.86552 | 0.05868 | 17896 ft | 325 kts | 196° |
| 2026-04-24 16:04 | 40.84390 | 0.04981 | 17494 ft | 325 kts | 195° |
| 2026-04-24 16:04 | 40.82233 | 0.04119 | 17231 ft | 320 kts | 195° |
| 2026-04-24 16:05 | 40.78023 | 0.02451 | 16561 ft | 302 kts | 195° |
| 2026-04-24 16:05 | 40.76052 | 0.01668 | 16313 ft | 290 kts | 195° |
| 2026-04-24 16:06 | 40.72233 | 0.00149 | 15417 ft | 284 kts | 196° |
| 2026-04-24 16:06 | 40.70343 | -0.00605 | 14976 ft | 284 kts | 197° |
| 2026-04-24 16:06 | 40.66554 | -0.02117 | 14282 ft | 287 kts | 197° |
| 2026-04-24 16:07 | 40.64641 | -0.02876 | 13944 ft | 285 kts | 197° |
| 2026-04-24 16:07 | 40.62745 | -0.03626 | 13570 ft | 283 kts | 197° |
| 2026-04-24 16:07 | 40.58988 | -0.05123 | 12877 ft | 282 kts | 197° |
| 2026-04-24 16:08 | 40.57108 | -0.05872 | 12527 ft | 282 kts | 197° |
| 2026-04-24 16:08 | 40.53361 | -0.07363 | 11935 ft | 278 kts | 197° |
| 2026-04-24 16:09 | 40.49706 | -0.08808 | 11129 ft | 271 kts | 197° |
| 2026-04-24 16:09 | 40.47910 | -0.09520 | 10784 ft | 269 kts | 197° |
| 2026-04-24 16:09 | 40.46120 | -0.10230 | 10429 ft | 267 kts | 197° |
| 2026-04-24 16:09 | 40.44340 | -0.10937 | 10076 ft | 266 kts | 197° |
| 2026-04-24 16:10 | 40.39064 | -0.13030 | 8961 ft | 262 kts | 197° |
| 2026-04-24 16:11 | 40.35594 | -0.14404 | 8228 ft | 262 kts | 197° |
| 2026-04-24 16:11 | 40.33862 | -0.15089 | 7848 ft | 255 kts | 197° |
| 2026-04-24 16:11 | 40.32191 | -0.15746 | 7487 ft | 247 kts | 197° |
| 2026-04-24 16:12 | 40.28975 | -0.17009 | 6704 ft | 239 kts | 197° |
| 2026-04-24 16:12 | 40.27379 | -0.17632 | 6289 ft | 238 kts | 195° |
| 2026-04-24 16:12 | 40.24143 | -0.17783 | 5498 ft | 231 kts | 168° |
| 2026-04-24 16:13 | 40.22611 | -0.17251 | 5090 ft | 229 kts | 164° |
| 2026-04-24 16:13 | 40.19589 | -0.16165 | 4333 ft | 221 kts | 164° |
| 2026-04-24 16:14 | 40.16696 | -0.15123 | 3999 ft | 205 kts | 162° |
| 2026-04-24 16:14 | 40.15456 | -0.14341 | 3983 ft | 192 kts | 143° |
| 2026-04-24 16:14 | 40.13922 | -0.11710 | 3928 ft | 181 kts | 108° |
| 2026-04-24 16:15 | 40.13718 | -0.10657 | 3859 ft | 180 kts | 97° |
| 2026-04-24 16:15 | 40.14291 | -0.07033 | 3477 ft | 176 kts | 57° |
| 2026-04-24 16:16 | 40.15617 | -0.04362 | 3006 ft | 174 kts | 57° |
| 2026-04-24 16:16 | 40.16257 | -0.03070 | 2770 ft | 164 kts | 58° |
| 2026-04-24 16:17 | 40.17933 | 0.00315 | 2165 ft | 140 kts | 59° |
| 2026-04-24 16:17 | 40.18980 | 0.02426 | 1798 ft | 138 kts | 60° |
| 2026-04-24 16:18 | 40.20005 | 0.04519 | 1406 ft | 137 kts | 60° |
| 2026-04-24 16:18 | 40.21043 | 0.06596 | 1123 ft | 125 kts | 59° |
| 2026-04-24 16:18 | 40.21426 | 0.07374 | 1147 ft | 77 kts | 57° |
| 2026-04-24 16:19 | 40.21764 | 0.08056 | 1167 ft | 32 kts | 57° |
| 2026-04-24 16:19 | 40.21877 | 0.08286 | 1175 ft | 28 kts | 57° |
| 2026-04-24 16:20 | 40.22013 | 0.08599 | 1186 ft | 8 kts | 79° |
| 2026-04-24 16:20 | 40.22035 | 0.08737 | 1189 ft | 7 kts | 65° |
| 2026-04-24 16:20 | 40.22059 | 0.08773 | 1190 ft | 3 kts | 21° |
| 2026-04-24 16:21 | 40.22069 | 0.08669 | 1188 ft | 14 kts | 238° |
| 2026-04-24 16:21 | 40.22009 | 0.08550 | 1185 ft | 20 kts | 237° |
| 2026-04-24 16:21 | 40.21909 | 0.08349 | 1174 ft | 29 kts | 237° |
| 2026-04-24 16:22 | 40.21792 | 0.08115 | 1170 ft | 33 kts | 238° |
| 2026-04-24 16:22 | 40.21525 | 0.07574 | 1154 ft | 39 kts | 237° |
| 2026-04-24 16:22 | 40.21413 | 0.07346 | 1147 ft | 23 kts | 238° |
| 2026-04-24 16:23 | 40.21315 | 0.07152 | 1141 ft | 28 kts | 237° |
| 2026-04-24 16:23 | 40.21204 | 0.06928 | 1137 ft | 31 kts | 236° |
| 2026-04-24 16:23 | 40.21080 | 0.06678 | 1122 ft | 35 kts | 237° |
| 2026-04-24 16:24 | 40.20837 | 0.06188 | 1099 ft | 18 kts | 236° |
| 2026-04-24 16:24 | 40.20785 | 0.06087 | 1101 ft | 10 kts | 232° |
| 2026-04-24 16:24 | 40.20724 | 0.06075 | 1101 ft | 10 kts | 153° |
| 2026-04-24 16:24 | 40.20685 | 0.06108 | 1104 ft | 7 kts | 146° |
| 2026-04-24 16:25 | 40.20645 | 0.06154 | 1104 ft | 8 kts | 120° |
| 2026-04-24 16:25 | 40.20652 | 0.06223 | 1099 ft | 8 kts | 61° |
| 2026-04-24 16:25 | 40.20675 | 0.06273 | 1099 ft | 5 kts | 59° |
| 2026-04-24 16:26 | 40.20704 | 0.06372 | 1110 ft | 6 kts | 100° |
| 2026-04-24 16:26 | 40.20670 | 0.06419 | 1106 ft | 10 kts | 144° |
| 2026-04-24 16:26 | 40.20664 | 0.06546 | 1109 ft | 5 kts | 58° |
| 2026-04-24 16:27 | 40.20669 | 0.06573 | 1111 ft | 4 kts | 100° |
| 2026-04-24 16:27 | 40.20641 | 0.06604 | 1112 ft | 6 kts | 148° |
| 2026-04-24 16:27 | 40.20607 | 0.06631 | 1111 ft | 0 kts | 147° |